sensor_id;sensor_type;location;lat;lon;timestamp;temperature;humidity
71436;SHT31;59251;51.326;12.370;2023-07-13T00:01:44;21.03;62.16
71436;SHT31;59251;51.326;12.370;2023-07-13T00:04:15;21.11;63.01
71436;SHT31;59251;51.326;12.370;2023-07-13T00:06:42;21.04;63.46
71436;SHT31;59251;51.326;12.370;2023-07-13T00:09:10;21.03;64.19
71436;SHT31;59251;51.326;12.370;2023-07-13T00:11:37;21.03;63.93
71436;SHT31;59251;51.326;12.370;2023-07-13T00:14:05;21.15;63.20
71436;SHT31;59251;51.326;12.370;2023-07-13T00:16:33;21.01;64.48
71436;SHT31;59251;51.326;12.370;2023-07-13T00:19:00;20.97;64.32
71436;SHT31;59251;51.326;12.370;2023-07-13T00:21:27;20.97;64.04
71436;SHT31;59251;51.326;12.370;2023-07-13T00:23:54;20.87;64.58
71436;SHT31;59251;51.326;12.370;2023-07-13T00:26:21;20.79;64.39
71436;SHT31;59251;51.326;12.370;2023-07-13T00:28:47;20.79;64.15
71436;SHT31;59251;51.326;12.370;2023-07-13T00:31:15;20.86;63.81
71436;SHT31;59251;51.326;12.370;2023-07-13T00:33:42;20.81;63.77
71436;SHT31;59251;51.326;12.370;2023-07-13T00:36:10;20.84;63.74
71436;SHT31;59251;51.326;12.370;2023-07-13T00:38:37;20.84;62.95
71436;SHT31;59251;51.326;12.370;2023-07-13T00:41:04;20.95;63.59
71436;SHT31;59251;51.326;12.370;2023-07-13T00:43:31;20.98;63.37
71436;SHT31;59251;51.326;12.370;2023-07-13T00:46:21;21.03;62.39
71436;SHT31;59251;51.326;12.370;2023-07-13T00:48:48;21.08;62.98
71436;SHT31;59251;51.326;12.370;2023-07-13T00:51:19;21.07;62.76
71436;SHT31;59251;51.326;12.370;2023-07-13T00:53:47;21.03;62.49
71436;SHT31;59251;51.326;12.370;2023-07-13T00:56:14;20.97;62.09
71436;SHT31;59251;51.326;12.370;2023-07-13T00:58:41;20.94;62.13
71436;SHT31;59251;51.326;12.370;2023-07-13T01:01:08;20.97;63.36
71436;SHT31;59251;51.326;12.370;2023-07-13T01:03:36;20.91;63.75
71436;SHT31;59251;51.326;12.370;2023-07-13T01:06:03;20.69;64.46
71436;SHT31;59251;51.326;12.370;2023-07-13T01:08:30;20.67;64.03
71436;SHT31;59251;51.326;12.370;2023-07-13T01:10:59;20.81;63.30
71436;SHT31;59251;51.326;12.370;2023-07-13T01:13:26;20.83;62.48
71436;SHT31;59251;51.326;12.370;2023-07-13T01:16:09;20.84;62.06
71436;SHT31;59251;51.326;12.370;2023-07-13T01:18:39;21.00;61.63
71436;SHT31;59251;51.326;12.370;2023-07-13T01:21:07;21.07;61.57
71436;SHT31;59251;51.326;12.370;2023-07-13T01:23:34;21.11;61.11
71436;SHT31;59251;51.326;12.370;2023-07-13T01:26:01;21.07;61.16
71436;SHT31;59251;51.326;12.370;2023-07-13T01:28:29;21.10;60.87
71436;SHT31;59251;51.326;12.370;2023-07-13T01:30:58;21.05;60.82
71436;SHT31;59251;51.326;12.370;2023-07-13T01:33:25;20.84;61.14
71436;SHT31;59251;51.326;12.370;2023-07-13T01:35:52;20.73;61.27
71436;SHT31;59251;51.326;12.370;2023-07-13T01:38:22;20.76;61.47
71436;SHT31;59251;51.326;12.370;2023-07-13T01:40:49;20.73;61.45
71436;SHT31;59251;51.326;12.370;2023-07-13T01:43:16;20.63;61.66
71436;SHT31;59251;51.326;12.370;2023-07-13T01:45:44;20.59;62.01
71436;SHT31;59251;51.326;12.370;2023-07-13T01:48:11;20.47;62.24
71436;SHT31;59251;51.326;12.370;2023-07-13T01:50:38;20.42;62.44
71436;SHT31;59251;51.326;12.370;2023-07-13T01:53:05;20.30;62.89
71436;SHT31;59251;51.326;12.370;2023-07-13T01:55:33;20.28;63.09
71436;SHT31;59251;51.326;12.370;2023-07-13T01:58:01;20.30;63.07
71436;SHT31;59251;51.326;12.370;2023-07-13T02:00:28;20.19;63.17
71436;SHT31;59251;51.326;12.370;2023-07-13T02:02:55;20.12;63.38
71436;SHT31;59251;51.326;12.370;2023-07-13T02:05:22;19.90;63.82
71436;SHT31;59251;51.326;12.370;2023-07-13T02:07:49;19.88;63.91
71436;SHT31;59251;51.326;12.370;2023-07-13T02:10:16;20.04;63.71
71436;SHT31;59251;51.326;12.370;2023-07-13T02:12:44;20.11;63.42
71436;SHT31;59251;51.326;12.370;2023-07-13T02:15:11;20.22;63.35
71436;SHT31;59251;51.326;12.370;2023-07-13T02:17:38;20.12;63.51
71436;SHT31;59251;51.326;12.370;2023-07-13T02:20:05;19.92;63.87
71436;SHT31;59251;51.326;12.370;2023-07-13T02:22:33;19.90;64.07
71436;SHT31;59251;51.326;12.370;2023-07-13T02:25:00;19.91;64.06
71436;SHT31;59251;51.326;12.370;2023-07-13T02:27:26;20.04;63.84
71436;SHT31;59251;51.326;12.370;2023-07-13T02:29:54;20.01;64.04
71436;SHT31;59251;51.326;12.370;2023-07-13T02:32:21;19.99;63.96
71436;SHT31;59251;51.326;12.370;2023-07-13T02:34:51;20.05;64.22
71436;SHT31;59251;51.326;12.370;2023-07-13T02:37:18;19.99;64.32
71436;SHT31;59251;51.326;12.370;2023-07-13T02:39:45;19.87;64.72
71436;SHT31;59251;51.326;12.370;2023-07-13T02:42:13;19.64;65.33
71436;SHT31;59251;51.326;12.370;2023-07-13T02:44:40;19.53;65.78
71436;SHT31;59251;51.326;12.370;2023-07-13T02:47:08;19.49;65.94
71436;SHT31;59251;51.326;12.370;2023-07-13T02:49:34;19.32;66.51
71436;SHT31;59251;51.326;12.370;2023-07-13T02:52:02;19.15;66.99
71436;SHT31;59251;51.326;12.370;2023-07-13T02:54:29;19.18;67.13
71436;SHT31;59251;51.326;12.370;2023-07-13T02:56:55;19.11;67.39
71436;SHT31;59251;51.326;12.370;2023-07-13T02:59:22;19.12;67.40
71436;SHT31;59251;51.326;12.370;2023-07-13T03:01:49;18.99;67.75
71436;SHT31;59251;51.326;12.370;2023-07-13T03:04:17;18.95;67.81
71436;SHT31;59251;51.326;12.370;2023-07-13T03:06:45;18.87;68.07
71436;SHT31;59251;51.326;12.370;2023-07-13T03:09:12;18.81;68.30
71436;SHT31;59251;51.326;12.370;2023-07-13T03:11:42;18.79;68.58
71436;SHT31;59251;51.326;12.370;2023-07-13T03:14:26;18.83;68.45
71436;SHT31;59251;51.326;12.370;2023-07-13T03:16:52;18.76;68.62
71436;SHT31;59251;51.326;12.370;2023-07-13T03:19:24;18.87;68.43
71436;SHT31;59251;51.326;12.370;2023-07-13T03:21:51;18.68;68.94
71436;SHT31;59251;51.326;12.370;2023-07-13T03:24:18;18.68;69.20
71436;SHT31;59251;51.326;12.370;2023-07-13T03:26:45;18.61;69.39
71436;SHT31;59251;51.326;12.370;2023-07-13T03:29:12;18.58;69.70
71436;SHT31;59251;51.326;12.370;2023-07-13T03:31:40;18.64;69.49
71436;SHT31;59251;51.326;12.370;2023-07-13T03:34:06;18.68;69.48
71436;SHT31;59251;51.326;12.370;2023-07-13T03:36:35;18.54;69.83
71436;SHT31;59251;51.326;12.370;2023-07-13T03:39:05;18.43;70.28
71436;SHT31;59251;51.326;12.370;2023-07-13T03:41:54;18.44;70.42
71436;SHT31;59251;51.326;12.370;2023-07-13T03:44:21;18.41;70.61
71436;SHT31;59251;51.326;12.370;2023-07-13T03:46:52;18.33;70.80
71436;SHT31;59251;51.326;12.370;2023-07-13T03:49:19;18.43;70.77
71436;SHT31;59251;51.326;12.370;2023-07-13T03:51:47;18.32;71.20
71436;SHT31;59251;51.326;12.370;2023-07-13T03:54:14;18.33;71.25
71436;SHT31;59251;51.326;12.370;2023-07-13T03:56:41;18.30;71.26
71436;SHT31;59251;51.326;12.370;2023-07-13T03:59:09;18.22;71.75
71436;SHT31;59251;51.326;12.370;2023-07-13T04:01:36;18.17;71.78
71436;SHT31;59251;51.326;12.370;2023-07-13T04:04:03;18.14;72.13
71436;SHT31;59251;51.326;12.370;2023-07-13T04:06:31;18.25;71.88
71436;SHT31;59251;51.326;12.370;2023-07-13T04:09:00;18.27;71.73
71436;SHT31;59251;51.326;12.370;2023-07-13T04:11:30;18.26;72.12
71436;SHT31;59251;51.326;12.370;2023-07-13T04:13:59;18.20;72.35
71436;SHT31;59251;51.326;12.370;2023-07-13T04:16:26;18.20;72.62
71436;SHT31;59251;51.326;12.370;2023-07-13T04:18:54;18.17;72.93
71436;SHT31;59251;51.326;12.370;2023-07-13T04:21:25;18.13;73.05
71436;SHT31;59251;51.326;12.370;2023-07-13T04:23:52;18.22;73.01
71436;SHT31;59251;51.326;12.370;2023-07-13T04:26:20;18.27;72.99
71436;SHT31;59251;51.326;12.370;2023-07-13T04:28:48;18.41;72.72
71436;SHT31;59251;51.326;12.370;2023-07-13T04:31:14;18.38;72.70
71436;SHT31;59251;51.326;12.370;2023-07-13T04:33:41;18.33;73.06
71436;SHT31;59251;51.326;12.370;2023-07-13T04:36:09;18.40;73.17
71436;SHT31;59251;51.326;12.370;2023-07-13T04:38:36;18.46;73.28
71436;SHT31;59251;51.326;12.370;2023-07-13T04:41:05;18.48;73.43
71436;SHT31;59251;51.326;12.370;2023-07-13T04:43:33;18.63;73.30
71436;SHT31;59251;51.326;12.370;2023-07-13T04:46:03;18.83;72.33
71436;SHT31;59251;51.326;12.370;2023-07-13T04:48:30;18.78;72.48
71436;SHT31;59251;51.326;12.370;2023-07-13T04:50:58;18.83;72.22
71436;SHT31;59251;51.326;12.370;2023-07-13T04:53:26;18.89;71.60
71436;SHT31;59251;51.326;12.370;2023-07-13T04:55:53;18.96;71.98
71436;SHT31;59251;51.326;12.370;2023-07-13T04:58:21;19.05;71.73
71436;SHT31;59251;51.326;12.370;2023-07-13T05:00:50;19.11;71.54
71436;SHT31;59251;51.326;12.370;2023-07-13T05:03:17;19.08;71.65
71436;SHT31;59251;51.326;12.370;2023-07-13T05:05:54;19.20;71.50
71436;SHT31;59251;51.326;12.370;2023-07-13T05:08:21;19.33;71.15
71436;SHT31;59251;51.326;12.370;2023-07-13T05:10:48;19.39;71.02
71436;SHT31;59251;51.326;12.370;2023-07-13T05:13:15;19.46;70.77
71436;SHT31;59251;51.326;12.370;2023-07-13T05:15:41;19.63;70.38
71436;SHT31;59251;51.326;12.370;2023-07-13T05:18:09;19.77;69.76
71436;SHT31;59251;51.326;12.370;2023-07-13T05:20:36;19.97;69.49
71436;SHT31;59251;51.326;12.370;2023-07-13T05:23:03;20.15;68.73
71436;SHT31;59251;51.326;12.370;2023-07-13T05:25:30;20.35;68.29
71436;SHT31;59251;51.326;12.370;2023-07-13T05:27:56;20.56;67.41
71436;SHT31;59251;51.326;12.370;2023-07-13T05:30:23;20.73;66.57
71436;SHT31;59251;51.326;12.370;2023-07-13T05:32:50;20.88;66.19
71436;SHT31;59251;51.326;12.370;2023-07-13T05:35:18;21.34;66.23
71436;SHT31;59251;51.326;12.370;2023-07-13T05:37:44;21.62;65.76
71436;SHT31;59251;51.326;12.370;2023-07-13T05:40:11;21.80;65.66
71436;SHT31;59251;51.326;12.370;2023-07-13T05:42:38;21.83;65.17
71436;SHT31;59251;51.326;12.370;2023-07-13T05:45:05;21.83;64.75
71436;SHT31;59251;51.326;12.370;2023-07-13T05:47:32;21.82;64.41
71436;SHT31;59251;51.326;12.370;2023-07-13T05:49:59;21.80;64.46
71436;SHT31;59251;51.326;12.370;2023-07-13T05:52:27;21.67;64.08
71436;SHT31;59251;51.326;12.370;2023-07-13T05:54:53;21.82;64.10
71436;SHT31;59251;51.326;12.370;2023-07-13T05:57:20;21.72;64.55
71436;SHT31;59251;51.326;12.370;2023-07-13T05:59:47;21.93;63.55
71436;SHT31;59251;51.326;12.370;2023-07-13T06:02:14;22.00;63.00
71436;SHT31;59251;51.326;12.370;2023-07-13T06:04:40;22.01;63.53
71436;SHT31;59251;51.326;12.370;2023-07-13T06:07:07;21.73;64.22
71436;SHT31;59251;51.326;12.370;2023-07-13T06:09:35;21.75;63.76
71436;SHT31;59251;51.326;12.370;2023-07-13T06:12:02;21.92;63.44
71436;SHT31;59251;51.326;12.370;2023-07-13T06:14:29;21.85;64.34
71436;SHT31;59251;51.326;12.370;2023-07-13T06:16:56;21.82;64.33
71436;SHT31;59251;51.326;12.370;2023-07-13T06:19:22;21.76;64.17
71436;SHT31;59251;51.326;12.370;2023-07-13T06:21:49;21.65;65.04
71436;SHT31;59251;51.326;12.370;2023-07-13T06:24:16;21.59;64.96
71436;SHT31;59251;51.326;12.370;2023-07-13T06:26:44;21.67;63.82
71436;SHT31;59251;51.326;12.370;2023-07-13T06:29:11;21.88;63.44
71436;SHT31;59251;51.326;12.370;2023-07-13T06:31:37;21.89;63.80
71436;SHT31;59251;51.326;12.370;2023-07-13T06:34:04;21.96;63.15
71436;SHT31;59251;51.326;12.370;2023-07-13T06:36:31;21.94;62.98
71436;SHT31;59251;51.326;12.370;2023-07-13T06:38:57;22.06;62.73
71436;SHT31;59251;51.326;12.370;2023-07-13T06:41:24;22.18;62.67
71436;SHT31;59251;51.326;12.370;2023-07-13T06:43:52;22.21;62.51
71436;SHT31;59251;51.326;12.370;2023-07-13T06:46:20;22.33;62.39
71436;SHT31;59251;51.326;12.370;2023-07-13T06:48:47;22.16;61.12
71436;SHT31;59251;51.326;12.370;2023-07-13T06:51:14;22.34;60.14
71436;SHT31;59251;51.326;12.370;2023-07-13T06:53:41;22.41;58.69
71436;SHT31;59251;51.326;12.370;2023-07-13T06:56:08;22.43;57.97
71436;SHT31;59251;51.326;12.370;2023-07-13T06:58:35;22.38;58.46
71436;SHT31;59251;51.326;12.370;2023-07-13T07:01:04;22.47;59.27
71436;SHT31;59251;51.326;12.370;2023-07-13T07:03:31;22.75;58.13
71436;SHT31;59251;51.326;12.370;2023-07-13T07:06:00;23.10;57.32
71436;SHT31;59251;51.326;12.370;2023-07-13T07:08:27;23.19;56.75
71436;SHT31;59251;51.326;12.370;2023-07-13T07:10:54;23.22;58.18
71436;SHT31;59251;51.326;12.370;2023-07-13T07:13:20;23.31;58.39
71436;SHT31;59251;51.326;12.370;2023-07-13T07:15:47;23.20;57.40
71436;SHT31;59251;51.326;12.370;2023-07-13T07:18:15;23.03;57.44
71436;SHT31;59251;51.326;12.370;2023-07-13T07:20:42;22.78;58.01
71436;SHT31;59251;51.326;12.370;2023-07-13T07:23:08;22.78;56.60
71436;SHT31;59251;51.326;12.370;2023-07-13T07:25:35;22.62;56.85
71436;SHT31;59251;51.326;12.370;2023-07-13T07:28:07;22.58;57.29
71436;SHT31;59251;51.326;12.370;2023-07-13T07:30:34;22.58;57.58
71436;SHT31;59251;51.326;12.370;2023-07-13T07:33:00;22.64;57.10
71436;SHT31;59251;51.326;12.370;2023-07-13T07:35:29;22.79;57.79
71436;SHT31;59251;51.326;12.370;2023-07-13T07:37:55;23.02;57.32
71436;SHT31;59251;51.326;12.370;2023-07-13T07:40:22;23.51;56.70
71436;SHT31;59251;51.326;12.370;2023-07-13T07:42:49;23.74;55.63
71436;SHT31;59251;51.326;12.370;2023-07-13T07:45:15;24.04;55.48
71436;SHT31;59251;51.326;12.370;2023-07-13T07:47:42;23.95;55.76
71436;SHT31;59251;51.326;12.370;2023-07-13T07:50:09;23.92;55.45
71436;SHT31;59251;51.326;12.370;2023-07-13T07:52:37;23.71;54.22
71436;SHT31;59251;51.326;12.370;2023-07-13T07:55:06;23.44;53.93
71436;SHT31;59251;51.326;12.370;2023-07-13T07:57:33;23.37;53.67
71436;SHT31;59251;51.326;12.370;2023-07-13T08:00:00;23.19;54.53
71436;SHT31;59251;51.326;12.370;2023-07-13T08:02:26;22.89;54.76
71436;SHT31;59251;51.326;12.370;2023-07-13T08:04:53;22.69;54.88
71436;SHT31;59251;51.326;12.370;2023-07-13T08:07:20;22.86;54.29
71436;SHT31;59251;51.326;12.370;2023-07-13T08:09:48;22.85;54.26
71436;SHT31;59251;51.326;12.370;2023-07-13T08:12:17;22.89;54.40
71436;SHT31;59251;51.326;12.370;2023-07-13T08:14:44;23.16;54.10
71436;SHT31;59251;51.326;12.370;2023-07-13T08:17:10;23.14;54.22
71436;SHT31;59251;51.326;12.370;2023-07-13T08:19:37;23.36;53.67
71436;SHT31;59251;51.326;12.370;2023-07-13T08:22:04;23.53;53.39
71436;SHT31;59251;51.326;12.370;2023-07-13T08:24:31;23.53;53.68
71436;SHT31;59251;51.326;12.370;2023-07-13T08:26:59;23.78;53.51
71436;SHT31;59251;51.326;12.370;2023-07-13T08:29:26;23.77;53.51
71436;SHT31;59251;51.326;12.370;2023-07-13T08:31:53;24.05;53.25
71436;SHT31;59251;51.326;12.370;2023-07-13T08:34:19;24.06;52.91
71436;SHT31;59251;51.326;12.370;2023-07-13T08:36:46;24.29;52.74
71436;SHT31;59251;51.326;12.370;2023-07-13T08:39:13;24.39;52.38
71436;SHT31;59251;51.326;12.370;2023-07-13T08:41:40;24.59;52.52
71436;SHT31;59251;51.326;12.370;2023-07-13T08:44:19;24.73;52.43
71436;SHT31;59251;51.326;12.370;2023-07-13T08:46:51;24.40;52.60
71436;SHT31;59251;51.326;12.370;2023-07-13T08:49:21;24.30;52.70
71436;SHT31;59251;51.326;12.370;2023-07-13T08:51:51;24.37;52.60
71436;SHT31;59251;51.326;12.370;2023-07-13T08:54:22;24.12;53.14
71436;SHT31;59251;51.326;12.370;2023-07-13T08:56:51;23.92;52.82
71436;SHT31;59251;51.326;12.370;2023-07-13T08:59:24;23.91;52.82
71436;SHT31;59251;51.326;12.370;2023-07-13T09:02:16;23.86;52.64
71436;SHT31;59251;51.326;12.370;2023-07-13T09:04:47;24.19;52.11
71436;SHT31;59251;51.326;12.370;2023-07-13T09:07:27;24.46;51.42
71436;SHT31;59251;51.326;12.370;2023-07-13T09:10:05;24.87;49.99
71436;SHT31;59251;51.326;12.370;2023-07-13T09:12:43;24.87;50.33
71436;SHT31;59251;51.326;12.370;2023-07-13T09:15:23;24.90;50.20
71436;SHT31;59251;51.326;12.370;2023-07-13T09:17:51;25.05;49.90
71436;SHT31;59251;51.326;12.370;2023-07-13T09:20:25;24.84;50.58
71436;SHT31;59251;51.326;12.370;2023-07-13T09:22:53;24.81;50.54
71436;SHT31;59251;51.326;12.370;2023-07-13T09:25:24;24.81;50.36
71436;SHT31;59251;51.326;12.370;2023-07-13T09:27:56;24.73;50.28
71436;SHT31;59251;51.326;12.370;2023-07-13T09:30:32;24.98;49.63
71436;SHT31;59251;51.326;12.370;2023-07-13T09:33:00;25.10;49.03
71436;SHT31;59251;51.326;12.370;2023-07-13T09:35:28;25.16;47.95
71436;SHT31;59251;51.326;12.370;2023-07-13T09:38:02;25.93;46.84
71436;SHT31;59251;51.326;12.370;2023-07-13T09:40:38;26.35;46.47
71436;SHT31;59251;51.326;12.370;2023-07-13T09:43:08;26.42;46.20
71436;SHT31;59251;51.326;12.370;2023-07-13T09:45:38;26.28;46.13
71436;SHT31;59251;51.326;12.370;2023-07-13T09:48:12;25.89;47.22
71436;SHT31;59251;51.326;12.370;2023-07-13T09:50:39;25.45;47.98
71436;SHT31;59251;51.326;12.370;2023-07-13T09:53:12;25.22;48.53
71436;SHT31;59251;51.326;12.370;2023-07-13T09:55:41;25.24;48.77
71436;SHT31;59251;51.326;12.370;2023-07-13T09:58:11;25.19;48.79
71436;SHT31;59251;51.326;12.370;2023-07-13T10:00:40;25.05;49.32
71436;SHT31;59251;51.326;12.370;2023-07-13T10:03:16;24.97;50.16
71436;SHT31;59251;51.326;12.370;2023-07-13T10:05:45;24.84;49.95
71436;SHT31;59251;51.326;12.370;2023-07-13T10:08:21;24.91;50.05
71436;SHT31;59251;51.326;12.370;2023-07-13T10:10:53;24.97;49.91
71436;SHT31;59251;51.326;12.370;2023-07-13T10:13:33;24.92;49.31
71436;SHT31;59251;51.326;12.370;2023-07-13T10:16:04;25.25;49.19
71436;SHT31;59251;51.326;12.370;2023-07-13T10:18:37;25.39;48.74
71436;SHT31;59251;51.326;12.370;2023-07-13T10:21:11;25.65;48.16
71436;SHT31;59251;51.326;12.370;2023-07-13T10:23:39;25.84;46.73
71436;SHT31;59251;51.326;12.370;2023-07-13T10:26:13;25.97;46.87
71436;SHT31;59251;51.326;12.370;2023-07-13T10:28:42;26.18;45.48
71436;SHT31;59251;51.326;12.370;2023-07-13T10:31:15;26.28;45.41
71436;SHT31;59251;51.326;12.370;2023-07-13T10:33:42;25.94;47.78
71436;SHT31;59251;51.326;12.370;2023-07-13T10:36:16;25.65;49.08
71436;SHT31;59251;51.326;12.370;2023-07-13T10:38:45;25.32;50.00
71436;SHT31;59251;51.326;12.370;2023-07-13T10:41:17;25.63;49.75
71436;SHT31;59251;51.326;12.370;2023-07-13T10:43:47;25.86;49.19
71436;SHT31;59251;51.326;12.370;2023-07-13T10:46:19;25.80;49.02
71436;SHT31;59251;51.326;12.370;2023-07-13T10:48:48;25.50;50.09
71436;SHT31;59251;51.326;12.370;2023-07-13T10:51:18;25.54;49.74
71436;SHT31;59251;51.326;12.370;2023-07-13T10:53:47;25.80;48.89
71436;SHT31;59251;51.326;12.370;2023-07-13T10:56:23;25.52;48.01
71436;SHT31;59251;51.326;12.370;2023-07-13T10:59:02;25.53;48.18
71436;SHT31;59251;51.326;12.370;2023-07-13T11:01:46;25.56;48.19
71436;SHT31;59251;51.326;12.370;2023-07-13T11:04:15;25.52;48.16
71436;SHT31;59251;51.326;12.370;2023-07-13T11:06:43;25.76;48.19
71436;SHT31;59251;51.326;12.370;2023-07-13T11:09:34;26.00;47.19
71436;SHT31;59251;51.326;12.370;2023-07-13T11:12:06;25.91;46.46
71436;SHT31;59251;51.326;12.370;2023-07-13T11:14:35;26.00;45.10
71436;SHT31;59251;51.326;12.370;2023-07-13T11:17:34;26.25;44.77
71436;SHT31;59251;51.326;12.370;2023-07-13T11:20:19;26.29;44.92
71436;SHT31;59251;51.326;12.370;2023-07-13T11:22:48;26.62;44.91
71436;SHT31;59251;51.326;12.370;2023-07-13T11:25:27;27.00;44.53
71436;SHT31;59251;51.326;12.370;2023-07-13T11:28:06;26.66;44.90
71436;SHT31;59251;51.326;12.370;2023-07-13T11:30:37;26.86;44.58
71436;SHT31;59251;51.326;12.370;2023-07-13T11:33:15;26.44;44.68
71436;SHT31;59251;51.326;12.370;2023-07-13T11:35:47;26.82;44.05
71436;SHT31;59251;51.326;12.370;2023-07-13T11:38:17;26.73;44.14
71436;SHT31;59251;51.326;12.370;2023-07-13T11:40:46;27.07;43.98
71436;SHT31;59251;51.326;12.370;2023-07-13T11:43:14;26.44;44.14
71436;SHT31;59251;51.326;12.370;2023-07-13T11:45:42;26.66;43.98
71436;SHT31;59251;51.326;12.370;2023-07-13T11:48:26;26.85;43.20
71436;SHT31;59251;51.326;12.370;2023-07-13T11:50:56;27.50;43.07
71436;SHT31;59251;51.326;12.370;2023-07-13T11:53:26;27.02;41.91
71436;SHT31;59251;51.326;12.370;2023-07-13T11:55:53;26.58;42.48
71436;SHT31;59251;51.326;12.370;2023-07-13T11:58:23;26.25;42.81
71436;SHT31;59251;51.326;12.370;2023-07-13T12:00:51;26.27;42.98
71436;SHT31;59251;51.326;12.370;2023-07-13T12:03:22;27.37;41.02
71436;SHT31;59251;51.326;12.370;2023-07-13T12:06:00;27.98;40.30
71436;SHT31;59251;51.326;12.370;2023-07-13T12:08:28;27.89;39.92
71436;SHT31;59251;51.326;12.370;2023-07-13T12:11:04;28.67;39.53
71436;SHT31;59251;51.326;12.370;2023-07-13T12:13:36;28.03;40.15
71436;SHT31;59251;51.326;12.370;2023-07-13T12:16:10;28.35;39.02
71436;SHT31;59251;51.326;12.370;2023-07-13T12:18:39;29.37;37.47
71436;SHT31;59251;51.326;12.370;2023-07-13T12:21:12;29.47;37.30
71436;SHT31;59251;51.326;12.370;2023-07-13T12:23:43;30.19;36.58
71436;SHT31;59251;51.326;12.370;2023-07-13T12:26:11;29.36;37.53
71436;SHT31;59251;51.326;12.370;2023-07-13T12:28:44;29.76;37.33
71436;SHT31;59251;51.326;12.370;2023-07-13T12:31:24;28.87;38.79
71436;SHT31;59251;51.326;12.370;2023-07-13T12:33:58;28.90;38.47
71436;SHT31;59251;51.326;12.370;2023-07-13T12:36:25;27.57;39.94
71436;SHT31;59251;51.326;12.370;2023-07-13T12:38:54;28.40;38.99
71436;SHT31;59251;51.326;12.370;2023-07-13T12:41:22;28.14;38.62
71436;SHT31;59251;51.326;12.370;2023-07-13T12:43:49;28.30;38.31
71436;SHT31;59251;51.326;12.370;2023-07-13T12:46:18;29.04;37.78
71436;SHT31;59251;51.326;12.370;2023-07-13T12:48:49;28.92;37.76
71436;SHT31;59251;51.326;12.370;2023-07-13T12:51:20;29.84;37.24
71436;SHT31;59251;51.326;12.370;2023-07-13T12:53:49;29.92;36.95
71436;SHT31;59251;51.326;12.370;2023-07-13T12:56:21;29.70;36.68
71436;SHT31;59251;51.326;12.370;2023-07-13T12:58:49;30.70;35.96
71436;SHT31;59251;51.326;12.370;2023-07-13T13:01:21;29.63;36.35
71436;SHT31;59251;51.326;12.370;2023-07-13T13:03:50;30.84;35.31
71436;SHT31;59251;51.326;12.370;2023-07-13T13:06:23;30.69;35.45
71436;SHT31;59251;51.326;12.370;2023-07-13T13:08:52;29.92;37.48
71436;SHT31;59251;51.326;12.370;2023-07-13T13:11:20;30.11;37.81
71436;SHT31;59251;51.326;12.370;2023-07-13T13:13:49;29.71;37.14
71436;SHT31;59251;51.326;12.370;2023-07-13T13:16:20;30.67;36.32
71436;SHT31;59251;51.326;12.370;2023-07-13T13:18:47;30.76;35.78
71436;SHT31;59251;51.326;12.370;2023-07-13T13:21:15;31.57;35.58
71436;SHT31;59251;51.326;12.370;2023-07-13T13:23:44;30.97;35.84
71436;SHT31;59251;51.326;12.370;2023-07-13T13:26:12;30.72;35.06
71436;SHT31;59251;51.326;12.370;2023-07-13T13:28:40;31.62;34.70
71436;SHT31;59251;51.326;12.370;2023-07-13T13:31:08;31.13;35.92
71436;SHT31;59251;51.326;12.370;2023-07-13T13:33:38;31.49;35.70
71436;SHT31;59251;51.326;12.370;2023-07-13T13:36:13;30.17;36.77
71436;SHT31;59251;51.326;12.370;2023-07-13T13:38:40;29.25;38.39
71436;SHT31;59251;51.326;12.370;2023-07-13T13:41:10;29.59;38.30
71436;SHT31;59251;51.326;12.370;2023-07-13T13:43:36;29.27;37.84
71436;SHT31;59251;51.326;12.370;2023-07-13T13:46:13;29.33;37.66
71436;SHT31;59251;51.326;12.370;2023-07-13T13:48:41;30.07;37.28
71436;SHT31;59251;51.326;12.370;2023-07-13T13:51:15;30.63;37.16
71436;SHT31;59251;51.326;12.370;2023-07-13T13:53:43;31.20;35.85
71436;SHT31;59251;51.326;12.370;2023-07-13T13:56:11;31.33;35.98
71436;SHT31;59251;51.326;12.370;2023-07-13T13:58:38;32.64;34.79
71436;SHT31;59251;51.326;12.370;2023-07-13T14:01:11;31.37;35.95
71436;SHT31;59251;51.326;12.370;2023-07-13T14:03:39;31.62;35.72
71436;SHT31;59251;51.326;12.370;2023-07-13T14:06:08;31.30;36.43
71436;SHT31;59251;51.326;12.370;2023-07-13T14:08:36;32.08;35.63
71436;SHT31;59251;51.326;12.370;2023-07-13T14:11:03;31.52;35.94
71436;SHT31;59251;51.326;12.370;2023-07-13T14:13:36;29.18;38.72
71436;SHT31;59251;51.326;12.370;2023-07-13T14:16:10;29.25;38.92
71436;SHT31;59251;51.326;12.370;2023-07-13T14:18:37;29.64;38.34
71436;SHT31;59251;51.326;12.370;2023-07-13T14:21:11;29.19;38.71
71436;SHT31;59251;51.326;12.370;2023-07-13T14:23:38;30.83;37.20
71436;SHT31;59251;51.326;12.370;2023-07-13T14:26:09;31.14;35.99
71436;SHT31;59251;51.326;12.370;2023-07-13T14:28:40;29.97;37.83
71436;SHT31;59251;51.326;12.370;2023-07-13T14:31:07;30.94;36.48
71436;SHT31;59251;51.326;12.370;2023-07-13T14:33:34;30.53;37.21
71436;SHT31;59251;51.326;12.370;2023-07-13T14:36:02;30.62;37.34
71436;SHT31;59251;51.326;12.370;2023-07-13T14:38:28;31.01;36.82
71436;SHT31;59251;51.326;12.370;2023-07-13T14:40:55;29.96;37.75
71436;SHT31;59251;51.326;12.370;2023-07-13T14:43:22;31.41;35.84
71436;SHT31;59251;51.326;12.370;2023-07-13T14:45:51;32.29;34.99
71436;SHT31;59251;51.326;12.370;2023-07-13T14:48:21;30.70;36.75
71436;SHT31;59251;51.326;12.370;2023-07-13T14:50:51;31.83;35.75
71436;SHT31;59251;51.326;12.370;2023-07-13T14:53:19;31.51;36.24
71436;SHT31;59251;51.326;12.370;2023-07-13T14:55:46;30.66;36.96
71436;SHT31;59251;51.326;12.370;2023-07-13T14:58:12;32.74;34.75
71436;SHT31;59251;51.326;12.370;2023-07-13T15:00:40;32.33;34.05
71436;SHT31;59251;51.326;12.370;2023-07-13T15:03:16;31.20;35.06
71436;SHT31;59251;51.326;12.370;2023-07-13T15:05:45;29.23;36.82
71436;SHT31;59251;51.326;12.370;2023-07-13T15:08:11;29.14;37.35
71436;SHT31;59251;51.326;12.370;2023-07-13T15:10:38;28.98;38.07
71436;SHT31;59251;51.326;12.370;2023-07-13T15:13:14;28.90;38.16
71436;SHT31;59251;51.326;12.370;2023-07-13T15:15:45;28.54;38.24
71436;SHT31;59251;51.326;12.370;2023-07-13T15:18:15;29.15;37.50
71436;SHT31;59251;51.326;12.370;2023-07-13T15:20:44;28.90;37.81
71436;SHT31;59251;51.326;12.370;2023-07-13T15:23:12;29.60;36.77
71436;SHT31;59251;51.326;12.370;2023-07-13T15:25:39;30.60;36.10
71436;SHT31;59251;51.326;12.370;2023-07-13T15:28:06;30.36;36.29